Metar z połowy godziny Komunikat METAR ze strony awiacja.imgw.pl Metar G00 EPGD METAR EPGD 062330Z 25005KT 8000 OVC004 01/01 Q1007 =